Time;durP1;ratioP1;P1;durP2;ratioP2;P2;SDS_P1;SDS_P2;PMS_P1;PMS_P2;Temp;Humidity;BMP_temperature;BMP_pressure;BME280_temperature;BME280_humidity;BME280_pressure;Samples;Min_cycle;Max_cycle;Signal;HPM_P1;HPM_P2
2024/03/14 00:00:49;;;;;;;136.33;50.87;;;;;;;5.92;100.00;100800.03;5025697;57;1144027;-78
2024/03/14 00:05:56;;;;;;;120.53;49.07;;;;;;;5.90;100.00;100795.79;5044831;56;1145402;-79
2024/03/14 00:11:05;;;;;;;100.20;42.97;;;;;;;5.97;100.00;100794.05;5025171;57;1144825;-78
2024/03/14 00:16:10;;;;;;;85.40;42.62;;;;;;;6.05;100.00;100794.11;5024857;56;1144870;-81
2024/03/14 00:21:16;;;;;;;89.92;42.05;;;;;;;6.07;100.00;100784.38;5045249;56;1142742;-73
2024/03/14 00:26:23;;;;;;;77.93;40.83;;;;;;;6.10;100.00;100786.37;5025748;56;1140683;-73
2024/03/14 00:31:29;;;;;;;72.90;35.97;;;;;;;6.07;100.00;100781.75;5025340;56;1141038;-76
2024/03/14 00:36:37;;;;;;;61.97;34.43;;;;;;;6.02;100.00;100785.93;5045854;56;1143100;-78
2024/03/14 00:41:43;;;;;;;76.63;36.97;;;;;;;5.97;100.00;100782.70;5025999;57;1142779;-73
2024/03/14 00:46:48;;;;;;;82.77;41.03;;;;;;;5.98;100.00;100780.45;4948456;57;1142959;-78
2024/03/14 00:51:56;;;;;;;79.40;43.85;;;;;;;5.96;100.00;100773.13;5025910;57;1142974;-75
2024/03/14 00:57:07;;;;;;;78.10;42.60;;;;;;;5.82;100.00;100761.19;5045236;56;1140898;-78
2024/03/14 01:02:08;;;;;;;82.90;43.10;;;;;;;5.66;100.00;100755.45;5025118;56;1140865;-71
2024/03/14 01:07:14;;;;;;;72.03;37.43;;;;;;;5.64;100.00;100753.40;5025922;56;1140853;-75
2024/03/14 01:12:20;;;;;;;66.77;38.27;;;;;;;5.68;100.00;100757.14;5044827;57;1142690;-75
2024/03/14 01:17:25;;;;;;;71.03;38.63;;;;;;;5.75;100.00;100750.66;5024749;56;1142905;-76
2024/03/14 01:22:32;;;;;;;67.23;38.63;;;;;;;5.81;100.00;100744.59;4996223;56;1142962;-73
2024/03/14 01:27:37;;;;;;;67.50;38.45;;;;;;;5.77;100.00;100750.11;5015781;56;1140739;-75
2024/03/14 01:32:43;;;;;;;88.40;41.53;;;;;;;5.64;100.00;100736.34;4997454;56;1140754;-78
2024/03/14 01:37:49;;;;;;;78.13;37.27;;;;;;;5.59;100.00;100742.29;4997130;57;1140686;-72
2024/03/14 01:42:58;;;;;;;58.73;32.67;;;;;;;5.63;100.00;100737.27;4983087;56;1142739;-74
2024/03/14 01:48:05;;;;;;;63.57;33.90;;;;;;;5.66;100.00;100727.05;4934766;58;1142666;-70
2024/03/14 01:53:11;;;;;;;58.43;33.57;;;;;;;5.61;100.00;100730.41;4915427;58;1142848;-73
2024/03/14 01:58:22;;;;;;;60.88;33.58;;;;;;;5.60;100.00;100729.55;4841847;58;1140827;-76
2024/03/14 02:03:26;;;;;;;59.13;32.77;;;;;;;5.59;100.00;100725.70;4935279;58;1140588;-72
2024/03/14 02:08:33;;;;;;;54.10;28.20;;;;;;;5.54;100.00;100725.09;4916552;56;1140880;-68
2024/03/14 02:13:39;;;;;;;54.07;28.90;;;;;;;5.47;100.00;100728.98;4916649;57;1140792;-75
2024/03/14 02:18:45;;;;;;;46.90;26.70;;;;;;;5.40;100.00;100733.69;4916855;57;1142936;-70
2024/03/14 02:23:51;;;;;;;55.67;29.67;;;;;;;5.40;100.00;100732.84;4967683;56;1142725;-74
2024/03/14 02:28:57;;;;;;;53.63;27.93;;;;;;;5.32;100.00;100725.86;5024966;57;1140765;-70
2024/03/14 02:34:07;;;;;;;48.47;26.80;;;;;;;5.21;100.00;100725.94;5025812;56;1140888;-72
2024/03/14 02:39:14;;;;;;;50.23;27.17;;;;;;;5.11;100.00;100733.05;5044742;56;1140698;-77
2024/03/14 02:44:21;;;;;;;48.40;24.70;;;;;;;5.00;100.00;100734.08;5025385;56;1140812;-75
2024/03/14 02:49:27;;;;;;;47.67;25.73;;;;;;;4.92;100.00;100731.37;5025304;57;1140763;-74
2024/03/14 02:54:33;;;;;;;49.33;25.70;;;;;;;4.88;100.00;100723.30;4958639;58;1142845;-77
2024/03/14 02:59:38;;;;;;;47.10;27.20;;;;;;;4.91;100.00;100725.74;4939442;58;1142903;-74
2024/03/14 03:04:44;;;;;;;46.90;27.17;;;;;;;4.87;100.00;100722.06;4944048;57;1140708;-75
2024/03/14 03:09:50;;;;;;;49.38;27.38;;;;;;;4.84;100.00;100722.22;4940660;57;1140807;-75
2024/03/14 03:14:55;;;;;;;53.48;26.33;;;;;;;4.68;100.00;100732.62;4959502;58;1140711;-70
2024/03/14 03:20:09;;;;;;;43.60;23.90;;;;;;;4.60;100.00;100721.66;4947365;57;1140806;-75
2024/03/14 03:25:10;;;;;;;43.73;24.57;;;;;;;4.65;100.00;100718.36;5003453;56;1142805;-75
2024/03/14 03:30:16;;;;;;;52.07;27.90;;;;;;;4.69;100.00;100718.59;5015906;57;1143232;-78
2024/03/14 03:35:22;;;;;;;57.30;31.70;;;;;;;4.70;100.00;100710.28;4996155;56;1140625;-77
2024/03/14 03:40:30;;;;;;;58.43;31.00;;;;;;;4.69;100.00;100708.12;4995317;57;1140672;-77
2024/03/14 03:45:35;;;;;;;54.33;29.40;;;;;;;4.67;100.00;100706.50;5015627;57;1140913;-72
2024/03/14 03:50:40;;;;;;;54.87;28.07;;;;;;;4.68;100.00;100708.19;4913673;57;1145524;-71
2024/03/14 03:55:47;;;;;;;55.10;29.67;;;;;;;4.68;100.00;100710.34;4912386;58;1142807;-68
2024/03/14 04:00:53;;;;;;;56.70;31.57;;;;;;;4.69;100.00;100711.20;4911539;58;1142839;-71
2024/03/14 04:05:59;;;;;;;58.47;33.13;;;;;;;4.70;100.00;100705.03;4957205;57;1140765;-77
2024/03/14 04:11:11;;;;;;;56.60;32.23;;;;;;;4.63;100.00;100712.80;4997059;56;1140699;-71
2024/03/14 04:16:16;;;;;;;62.47;33.53;;;;;;;4.54;100.00;100699.72;4993712;56;1141303;-70
2024/03/14 04:21:21;;;;;;;70.50;35.17;;;;;;;4.41;100.00;100703.41;5015916;56;1142680;-71
2024/03/14 04:26:27;;;;;;;79.23;38.63;;;;;;;4.37;100.00;100703.16;5014629;56;1142890;-76
2024/03/14 04:31:33;;;;;;;73.57;36.77;;;;;;;4.34;100.00;100712.94;5025231;56;1140680;-75
2024/03/14 04:36:40;;;;;;;72.07;36.07;;;;;;;4.29;100.00;100714.45;5050031;56;1141066;-75
2024/03/14 04:41:47;;;;;;;56.47;28.07;;;;;;;4.27;100.00;100718.09;5026055;56;1140918;-76
2024/03/14 04:46:58;;;;;;;55.38;28.38;;;;;;;4.23;100.00;100718.70;4944046;56;1142771;-76
2024/03/14 04:52:05;;;;;;;62.33;31.70;;;;;;;4.28;100.00;100718.48;5112160;56;1142924;-72
2024/03/14 04:57:11;;;;;;;60.10;31.27;;;;;;;4.27;100.00;100720.25;5094182;56;1140861;-76
2024/03/14 05:02:17;;;;;;;69.40;35.63;;;;;;;4.21;100.00;100716.15;5094433;56;1140767;-73
2024/03/14 05:07:25;;;;;;;91.43;37.93;;;;;;;4.03;100.00;100717.48;5082277;56;1140653;-79
2024/03/14 05:12:30;;;;;;;58.37;29.03;;;;;;;4.00;100.00;100719.78;5035837;57;1141189;-74
2024/03/14 05:17:36;;;;;;;63.00;29.60;;;;;;;3.98;100.00;100726.00;5040585;57;1140809;-77
2024/03/14 05:22:42;;;;;;;77.53;35.73;;;;;;;3.95;100.00;100729.64;5060384;57;1143161;-73
2024/03/14 05:27:49;;;;;;;92.20;40.27;;;;;;;3.93;100.00;100717.54;5015707;57;1142724;-76
2024/03/14 05:32:58;;;;;;;84.60;42.30;;;;;;;3.86;100.00;100720.43;4992007;57;1140953;-71
2024/03/14 05:38:02;;;;;;;79.60;39.37;;;;;;;3.81;100.00;100721.13;5011146;57;1140525;-74
2024/03/14 05:43:08;;;;;;;73.77;39.37;;;;;;;3.76;100.00;100724.41;4913667;57;1140711;-77
2024/03/14 05:48:15;;;;;;;75.77;36.20;;;;;;;3.64;100.00;100720.20;4962959;57;1140542;-75
2024/03/14 05:53:20;;;;;;;81.30;39.97;;;;;;;3.71;100.00;100725.52;4940330;58;1140958;-78
2024/03/14 05:58:26;;;;;;;77.70;34.57;;;;;;;3.80;100.00;100722.50;4990717;58;1142868;-76
2024/03/14 06:03:31;;;;;;;76.13;36.53;;;;;;;3.96;100.00;100719.56;4916456;57;1142636;-80
2024/03/14 06:08:37;;;;;;;83.40;40.37;;;;;;;4.12;100.00;100723.15;4991997;57;1141076;-77
2024/03/14 06:13:43;;;;;;;95.23;43.17;;;;;;;4.34;100.00;100723.41;4970061;57;1140587;-73
2024/03/14 06:18:49;;;;;;;89.00;40.25;;;;;;;4.47;100.00;100725.34;4949896;57;1140457;-74
2024/03/14 06:23:55;;;;;;;89.10;41.30;;;;;;;4.51;100.00;100722.97;4949142;58;1143066;-79
2024/03/14 06:29:01;;;;;;;77.57;41.03;;;;;;;4.53;100.00;100726.83;5009218;57;1143060;-73
2024/03/14 06:34:06;;;;;;;88.53;46.93;;;;;;;4.62;100.00;100718.50;4987501;57;1142623;-74
2024/03/14 06:39:17;;;;;;;102.93;53.40;;;;;;;4.90;100.00;100723.20;5010361;57;1142705;-72
2024/03/14 06:44:19;;;;;;;88.80;47.10;;;;;;;5.27;100.00;100723.47;4964309;57;1142763;-80
2024/03/14 06:49:26;;;;;;;83.37;40.43;;;;;;;5.62;100.00;100713.73;4998901;57;1143084;-73
2024/03/14 06:54:31;;;;;;;90.97;44.87;;;;;;;5.94;100.00;100714.64;5032383;57;1143069;-74
2024/03/14 06:59:37;;;;;;;85.97;44.70;;;;;;;6.31;100.00;100712.09;4953945;58;1142769;-78
2024/03/14 07:04:43;;;;;;;72.63;38.83;;;;;;;6.69;100.00;100717.78;5011668;56;1143010;-75
2024/03/14 07:09:49;;;;;;;71.72;40.73;;;;;;;7.08;100.00;100725.55;4993038;56;1143074;-77
2024/03/14 07:14:54;;;;;;;81.63;42.47;;;;;;;7.38;100.00;100727.18;5017223;56;1143286;-70
2024/03/14 07:20:01;;;;;;;75.07;43.70;;;;;;;7.66;100.00;100721.52;5015049;56;1142837;-70
2024/03/14 07:25:08;;;;;;;74.13;40.60;;;;;;;7.85;100.00;100726.02;4943280;58;1142750;-69
2024/03/14 07:30:16;;;;;;;58.97;31.20;;;;;;;8.07;100.00;100728.16;4998406;57;1142796;-75
2024/03/14 07:35:23;;;;;;;62.57;35.00;;;;;;;8.16;100.00;100728.87;4991383;57;1142765;-74
2024/03/14 07:40:32;;;;;;;73.63;38.30;;;;;;;8.14;100.00;100728.13;4961367;57;1143082;-73
2024/03/14 07:45:36;;;;;;;70.47;38.80;;;;;;;8.20;100.00;100729.05;4878902;58;1143036;-73
2024/03/14 07:50:42;;;;;;;63.50;36.40;;;;;;;8.32;100.00;100732.23;4968199;57;1142908;-78
2024/03/14 07:55:49;;;;;;;62.83;34.53;;;;;;;8.43;100.00;100735.48;4911793;57;1142796;-77
2024/03/14 08:00:55;;;;;;;68.57;38.07;;;;;;;8.62;100.00;100738.62;4965819;57;1142835;-76
2024/03/14 08:06:02;;;;;;;64.00;35.53;;;;;;;8.77;100.00;100736.28;4983058;58;1142993;-78
2024/03/14 08:11:21;;;;;;;63.03;37.67;;;;;;;8.97;100.00;100740.70;4977130;57;1142915;-73
2024/03/14 08:16:21;;;;;;;65.80;39.73;;;;;;;9.25;100.00;100736.56;4927686;57;1143172;-73
2024/03/14 08:21:29;;;;;;;62.93;33.83;;;;;;;9.50;100.00;100739.66;4965618;57;1142990;-80
2024/03/14 08:26:33;;;;;;;61.00;35.17;;;;;;;9.73;100.00;100745.98;4988074;57;1142854;-78
2024/03/14 08:31:41;;;;;;;60.47;36.30;;;;;;;9.84;100.00;100743.42;4943040;57;1142561;-77
2024/03/14 08:36:46;;;;;;;65.80;36.30;;;;;;;9.98;100.00;100739.31;4966562;58;1149247;-72
2024/03/14 08:41:52;;;;;;;61.13;38.90;;;;;;;10.13;100.00;100737.37;4973666;57;1148819;-76
2024/03/14 08:46:58;;;;;;;57.85;34.15;;;;;;;10.31;100.00;100732.58;4960935;57;1144889;-71
2024/03/14 08:52:04;;;;;;;55.83;34.77;;;;;;;10.50;100.00;100737.73;4951994;57;1145186;-70
2024/03/14 08:57:12;;;;;;;63.28;36.90;;;;;;;10.68;100.00;100738.66;4951795;57;1144932;-77
2024/03/14 09:02:22;;;;;;;66.43;37.00;;;;;;;11.08;100.00;100729.88;4913299;57;1145092;-73
2024/03/14 09:07:24;;;;;;;59.90;36.37;;;;;;;11.31;100.00;100730.26;4936736;57;1144942;-76
2024/03/14 09:12:30;;;;;;;50.43;31.70;;;;;;;11.53;100.00;100719.70;5002437;58;1144810;-75
2024/03/14 09:17:36;;;;;;;41.67;27.33;;;;;;;11.66;100.00;100720.89;4975605;57;1145035;-74
2024/03/14 09:22:45;;;;;;;56.33;32.43;;;;;;;11.90;100.00;100727.43;4949138;57;1145145;-75
2024/03/14 09:27:54;;;;;;;50.92;30.23;;;;;;;12.05;100.00;100730.18;4944600;57;1144862;-80
2024/03/14 09:32:59;;;;;;;41.80;26.65;;;;;;;12.19;100.00;100720.62;4930973;57;1144690;-81
2024/03/14 09:38:05;;;;;;;45.53;27.60;;;;;;;12.29;100.00;100726.86;5013428;57;1144912;-78
2024/03/14 09:43:14;;;;;;;33.10;21.73;;;;;;;12.41;100.00;100724.16;5025311;57;1144950;-79
2024/03/14 09:48:19;;;;;;;41.47;26.17;;;;;;;12.55;100.00;100723.39;5043394;57;1145093;-74
2024/03/14 09:53:30;;;;;;;35.20;23.97;;;;;;;12.61;100.00;100730.01;5004964;57;1145018;-77
2024/03/14 09:58:35;;;;;;;45.30;29.20;;;;;;;12.75;100.00;100724.87;5025076;57;1145022;-83
2024/03/14 10:03:40;;;;;;;38.17;26.30;;;;;;;12.86;100.00;100722.16;5057094;57;1144908;-71
2024/03/14 10:08:50;;;;;;;36.30;23.53;;;;;;;13.00;100.00;100717.86;4988509;57;1145105;-76
2024/03/14 10:14:01;;;;;;;38.05;24.35;;;;;;;13.10;100.00;100714.80;4973245;57;1145049;-80
2024/03/14 10:19:06;;;;;;;40.17;23.03;;;;;;;13.14;100.00;100720.18;4987625;57;1145010;-77
2024/03/14 10:24:17;;;;;;;36.33;23.20;;;;;;;12.98;100.00;100722.00;5012811;57;1145154;-74
2024/03/14 10:29:22;;;;;;;37.20;24.50;;;;;;;12.91;100.00;100721.30;4911484;57;1166731;-72
2024/03/14 10:34:26;;;;;;;37.37;20.77;;;;;;;12.97;100.00;100707.04;5010119;57;1144846;-77
2024/03/14 10:39:35;;;;;;;35.37;20.33;;;;;;;13.15;100.00;100714.42;4998093;57;1237441;-82
2024/03/14 10:44:41;;;;;;;35.33;22.00;;;;;;;13.23;100.00;100707.98;5033062;56;1145106;-80
2024/03/14 10:49:53;;;;;;;27.30;18.83;;;;;;;13.31;100.00;100713.47;4991366;57;1145161;-77
2024/03/14 10:54:59;;;;;;;26.90;17.37;;;;;;;13.34;100.00;100699.92;5078062;56;1145144;-72
2024/03/14 11:00:13;;;;;;;26.70;17.00;;;;;;;13.31;100.00;100697.04;5041426;55;1144990;-76
2024/03/14 11:05:15;;;;;;;21.37;13.33;;;;;;;13.37;100.00;100692.54;5101214;54;1145081;-72
2024/03/14 11:10:31;;;;;;;19.30;13.80;;;;;;;13.41;100.00;100677.67;4922383;57;1180262;-69
2024/03/14 11:15:40;;;;;;;23.27;15.13;;;;;;;13.41;100.00;100677.67;4989509;56;1145044;-73
2024/03/14 11:20:53;;;;;;;23.37;14.20;;;;;;;13.61;100.00;100682.06;4976137;57;1145137;-75
2024/03/14 11:26:03;;;;;;;23.73;13.30;;;;;;;13.56;100.00;100682.48;4957465;57;1144817;-79
2024/03/14 11:31:08;;;;;;;25.03;14.47;;;;;;;13.79;100.00;100677.79;4917399;57;1144682;-76
2024/03/14 11:36:14;;;;;;;25.93;15.47;;;;;;;13.97;100.00;100676.16;5058051;56;1145045;-80
2024/03/14 11:41:19;;;;;;;26.17;16.90;;;;;;;14.24;100.00;100671.99;5077003;56;1145129;-80
2024/03/14 11:46:27;;;;;;;30.43;16.73;;;;;;;14.37;100.00;100672.07;5075068;56;1145143;-75
2024/03/14 11:51:34;;;;;;;19.13;13.80;;;;;;;14.55;100.00;100664.27;5098339;56;1144745;-73
2024/03/14 11:56:41;;;;;;;22.33;13.70;;;;;;;14.68;100.00;100667.95;4996881;56;1145273;-77
2024/03/14 12:01:50;;;;;;;25.10;15.83;;;;;;;14.87;100.00;100663.10;5044127;56;1144946;-77
2024/03/14 12:06:55;;;;;;;23.60;16.10;;;;;;;15.04;100.00;100655.71;5070787;55;1145058;-76
2024/03/14 12:12:01;;;;;;;24.10;15.88;;;;;;;15.05;100.00;100659.56;5098677;56;1145086;-78
2024/03/14 12:17:10;;;;;;;28.27;16.80;;;;;;;15.05;100.00;100648.91;5077256;56;1144881;-80
2024/03/14 12:22:19;;;;;;;19.57;12.50;;;;;;;14.99;100.00;100637.48;5049892;56;1245834;-74
2024/03/14 12:27:24;;;;;;;19.90;14.50;;;;;;;15.06;100.00;100633.28;5033403;56;1251365;-78
2024/03/14 12:32:29;;;;;;;32.77;18.83;;;;;;;15.07;99.03;100625.63;5014025;56;1144757;-76
2024/03/14 12:37:36;;;;;;;30.60;17.40;;;;;;;14.96;100.00;100637.80;5075129;56;1246916;-77
2024/03/14 12:42:43;;;;;;;26.90;17.27;;;;;;;15.00;100.00;100625.02;5103611;56;1239697;-81
2024/03/14 12:47:50;;;;;;;26.40;16.20;;;;;;;14.86;100.00;100620.15;5096129;56;1175374;-76
2024/03/14 12:53:12;;;;;;;23.83;16.30;;;;;;;14.74;100.00;100622.14;5052927;56;1254561;-75
2024/03/14 12:58:22;;;;;;;35.73;19.70;;;;;;;14.63;100.00;100623.16;5083467;56;1200996;-80
2024/03/14 13:03:28;;;;;;;19.63;12.83;;;;;;;14.47;100.00;100631.36;5106372;55;1242251;-76
2024/03/14 13:08:34;;;;;;;20.03;13.73;;;;;;;14.40;100.00;100621.27;5106605;56;1145153;-72
2024/03/14 13:13:40;;;;;;;29.73;16.67;;;;;;;14.31;100.00;100617.27;5144940;56;1144633;-77
2024/03/14 13:18:55;;;;;;;23.57;15.30;;;;;;;14.32;100.00;100615.80;5045944;55;1144887;-78
2024/03/14 13:24:02;;;;;;;36.33;17.53;;;;;;;14.28;100.00;100622.37;5086583;57;1145069;-82
2024/03/14 13:29:12;;;;;;;25.08;14.80;;;;;;;14.18;100.00;100614.89;5024801;57;1145212;-74
2024/03/14 13:34:18;;;;;;;34.10;19.90;;;;;;;14.13;100.00;100602.48;4988476;56;1145155;-77
2024/03/14 13:39:26;;;;;;;22.63;15.77;;;;;;;14.13;100.00;100589.19;5035849;56;1145838;-78
2024/03/14 13:44:33;;;;;;;24.77;14.67;;;;;;;14.14;100.00;100592.20;4942031;56;1145173;-79
2024/03/14 13:49:38;;;;;;;21.63;14.50;;;;;;;14.13;100.00;100593.66;4926738;57;1145092;-77
2024/03/14 13:54:46;;;;;;;22.90;14.93;;;;;;;14.14;100.00;100595.34;4914990;57;1144856;-84
2024/03/14 13:59:52;;;;;;;32.97;15.37;;;;;;;14.14;100.00;100592.20;4933357;57;1145228;-81
2024/03/14 14:05:00;;;;;;;24.80;15.07;;;;;;;14.12;100.00;100593.31;5050512;57;1145027;-76
2024/03/14 14:10:06;;;;;;;26.73;12.80;;;;;;;14.01;100.00;100594.30;4994205;56;1145381;-82
2024/03/14 14:15:14;;;;;;;21.85;14.07;;;;;;;13.91;100.00;100600.08;4945169;56;1145126;-77
2024/03/14 14:20:19;;;;;;;19.27;14.37;;;;;;;13.76;100.00;100590.82;5010116;56;1145005;-77
2024/03/14 14:25:28;;;;;;;26.27;16.32;;;;;;;13.75;100.00;100587.84;4914310;57;1144982;-80
2024/03/14 14:30:35;;;;;;;26.30;16.23;;;;;;;13.72;100.00;100591.61;4910286;58;1144997;-79
2024/03/14 14:35:43;;;;;;;21.80;13.87;;;;;;;13.67;100.00;100589.36;5001643;56;1144998;-81
2024/03/14 14:40:52;;;;;;;19.98;12.95;;;;;;;13.57;100.00;100589.84;4900515;57;1144911;-73
2024/03/14 14:45:58;;;;;;;22.13;15.38;;;;;;;13.51;100.00;100585.53;5023224;56;1144892;-76
2024/03/14 14:51:04;;;;;;;22.67;15.17;;;;;;;13.46;100.00;100585.94;4944325;56;1145072;-76
2024/03/14 14:56:18;;;;;;;21.00;12.28;;;;;;;13.36;100.00;100591.23;4883872;58;1144917;-77
2024/03/14 15:01:23;;;;;;;20.77;12.47;;;;;;;13.33;100.00;100590.17;4898260;56;1145091;-79
2024/03/14 15:06:28;;;;;;;17.47;12.10;;;;;;;13.25;100.00;100586.03;5006127;55;1144800;-80
2024/03/14 15:11:34;;;;;;;23.43;12.33;;;;;;;13.22;100.00;100590.77;4946494;57;1145321;-79
2024/03/14 15:16:41;;;;;;;22.97;14.40;;;;;;;13.20;100.00;100575.45;5052409;56;1144856;-81
2024/03/14 15:21:53;;;;;;;38.90;23.40;;;;;;;13.14;100.00;100574.64;4922961;57;1144896;-75
2024/03/14 15:26:54;;;;;;;34.35;21.60;;;;;;;13.04;100.00;100575.42;4862388;57;1144866;-75
2024/03/14 15:32:06;;;;;;;17.90;12.97;;;;;;;12.98;100.00;100577.79;4955737;56;1145150;-79
2024/03/14 15:37:07;;;;;;;18.57;12.93;;;;;;;12.88;100.00;100588.34;5086701;55;1144831;-75
2024/03/14 15:42:16;;;;;;;30.80;19.53;;;;;;;12.77;100.00;100579.63;5014341;56;1144861;-79
2024/03/14 15:47:20;;;;;;;17.90;10.97;;;;;;;12.68;100.00;100572.79;5034971;56;1144604;-78
2024/03/14 15:52:26;;;;;;;30.87;16.80;;;;;;;12.67;100.00;100572.47;5015116;57;1144998;-81
2024/03/14 15:57:33;;;;;;;29.10;15.43;;;;;;;12.63;100.00;100579.00;5099101;55;1144766;-78
2024/03/14 16:02:39;;;;;;;35.03;18.43;;;;;;;12.60;100.00;100577.08;5118610;56;1144881;-75
2024/03/14 16:07:46;;;;;;;27.50;15.30;;;;;;;12.52;100.00;100584.87;5098104;56;1145093;-76
2024/03/14 16:12:51;;;;;;;27.27;14.77;;;;;;;12.48;100.00;100586.93;5098189;56;1145112;-74
2024/03/14 16:17:57;;;;;;;20.50;13.35;;;;;;;12.44;100.00;100586.83;5094711;56;1144823;-79
2024/03/14 16:23:03;;;;;;;21.20;13.97;;;;;;;12.45;100.00;100587.66;5118525;56;1144801;-77
2024/03/14 16:28:09;;;;;;;26.07;13.93;;;;;;;12.42;100.00;100588.77;5098672;56;1145038;-79
2024/03/14 16:33:16;;;;;;;19.52;11.48;;;;;;;12.38;100.00;100583.83;5098012;56;1144771;-79
2024/03/14 16:38:33;;;;;;;58.07;24.60;;;;;;;12.32;100.00;100590.03;5118258;56;1144783;-76
2024/03/14 16:43:40;;;;;;;70.23;26.07;;;;;;;12.30;100.00;100599.08;5098135;56;1144645;-79
2024/03/14 16:48:46;;;;;;;31.03;16.33;;;;;;;12.19;100.00;100590.70;4923473;57;1144731;-78
2024/03/14 16:53:51;;;;;;;108.90;27.70;;;;;;;12.14;100.00;100595.53;4996065;57;1145109;-79
2024/03/14 16:58:58;;;;;;;35.83;17.70;;;;;;;12.12;100.00;100598.80;5012238;58;1147281;-79
2024/03/14 17:04:05;;;;;;;73.87;36.47;;;;;;;12.09;100.00;100595.55;4995419;56;1144861;-78
2024/03/14 17:09:13;;;;;;;69.85;30.43;;;;;;;12.09;100.00;100598.20;4915624;57;1144999;-76
2024/03/14 17:14:18;;;;;;;208.82;65.08;;;;;;;11.96;100.00;100585.96;4930333;57;1145081;-81
2024/03/14 17:19:24;;;;;;;112.00;34.47;;;;;;;11.96;100.00;100585.96;4915348;56;1146778;-83
2024/03/14 17:24:32;;;;;;;94.13;27.40;;;;;;;12.00;100.00;100594.99;4912573;56;1146840;-77
2024/03/14 17:29:38;;;;;;;63.50;20.40;;;;;;;11.93;100.00;100586.20;5011509;57;1145023;-74
2024/03/14 17:34:44;;;;;;;66.80;23.67;;;;;;;11.90;100.00;100594.91;4994168;56;1144975;-82
2024/03/14 17:39:49;;;;;;;123.20;43.37;;;;;;;11.88;100.00;100595.52;4970249;56;1144777;-82
2024/03/14 17:44:56;;;;;;;84.17;29.25;;;;;;;11.80;100.00;100594.80;4898295;58;1147325;-81
2024/03/14 17:50:02;;;;;;;66.62;28.38;;;;;;;11.75;100.00;100604.08;4946649;57;1145193;-75
2024/03/14 17:55:10;;;;;;;20.60;10.58;;;;;;;11.71;100.00;100596.86;5002663;57;1145447;-77
2024/03/14 18:00:16;;;;;;;27.97;14.37;;;;;;;11.66;100.00;100599.03;5010547;56;1145351;-82
2024/03/14 18:05:22;;;;;;;44.53;18.70;;;;;;;11.67;100.00;100602.04;5008850;56;1144752;-74
2024/03/14 18:10:28;;;;;;;72.50;25.87;;;;;;;11.66;100.00;100596.37;4935674;56;1145290;-78
2024/03/14 18:15:34;;;;;;;27.00;16.60;;;;;;;11.63;100.00;100592.64;4937113;58;1145030;-81
2024/03/14 18:20:40;;;;;;;55.43;32.05;;;;;;;11.67;100.00;100597.22;4991030;56;1145023;-82
2024/03/14 18:25:45;;;;;;;64.17;26.42;;;;;;;11.69;100.00;100592.64;4945466;57;1144918;-75
2024/03/14 18:30:51;;;;;;;28.73;15.00;;;;;;;11.71;100.00;100592.04;4886452;57;1144916;-77
2024/03/14 18:35:57;;;;;;;39.17;20.67;;;;;;;11.65;100.00;100592.05;4917601;57;1145188;-78
2024/03/14 18:41:03;;;;;;;21.67;12.80;;;;;;;11.59;100.00;100589.42;5048615;56;1154825;-77
2024/03/14 18:46:11;;;;;;;47.85;25.85;;;;;;;11.54;100.00;100588.10;5069437;55;1145083;-82
2024/03/14 18:51:19;;;;;;;41.93;23.90;;;;;;;11.43;100.00;100588.97;5075141;56;1144860;-76
2024/03/14 18:56:24;;;;;;;33.30;18.40;;;;;;;11.41;100.00;100590.89;5099650;56;1144923;-79
2024/03/14 19:01:31;;;;;;;26.82;17.02;;;;;;;11.39;100.00;100594.14;5064507;56;1145297;-82
2024/03/14 19:06:36;;;;;;;29.47;16.93;;;;;;;11.35;100.00;100595.34;5075145;56;1145038;-76
2024/03/14 19:11:42;;;;;;;31.33;16.67;;;;;;;11.38;100.00;100589.81;5097703;56;1145195;-77
2024/03/14 19:16:49;;;;;;;86.40;46.67;;;;;;;11.40;100.00;100585.72;5083224;56;1144903;-78
2024/03/14 19:21:56;;;;;;;30.37;18.33;;;;;;;11.40;100.00;100587.89;5067944;56;1144981;-77
2024/03/14 19:27:01;;;;;;;28.40;16.40;;;;;;;11.42;100.00;100586.45;5087131;56;1145150;-80
2024/03/14 19:32:07;;;;;;;28.60;15.43;;;;;;;11.40;100.00;100580.42;5091962;56;1144992;-79
2024/03/14 19:37:13;;;;;;;29.65;17.15;;;;;;;11.36;100.00;100583.79;5066734;55;1144981;-76
2024/03/14 19:42:19;;;;;;;30.87;19.50;;;;;;;11.33;100.00;100592.45;5057570;56;1144914;-76
2024/03/14 19:47:25;;;;;;;28.60;18.43;;;;;;;11.27;100.00;100585.86;5084569;56;1144744;-75
2024/03/14 19:52:31;;;;;;;34.33;19.33;;;;;;;11.24;100.00;100594.88;5070224;56;1144963;-80
2024/03/14 19:57:37;;;;;;;42.20;18.87;;;;;;;11.27;100.00;100579.23;5068621;56;1145032;-80
2024/03/14 20:02:43;;;;;;;32.07;16.63;;;;;;;11.27;100.00;100586.70;5064929;56;1145196;-78
2024/03/14 20:07:49;;;;;;;28.67;15.13;;;;;;;11.24;100.00;100585.62;5050976;56;1144945;-80
2024/03/14 20:12:55;;;;;;;31.90;17.37;;;;;;;11.26;100.00;100570.45;5048682;56;1145080;-80
2024/03/14 20:18:02;;;;;;;330.73;93.47;;;;;;;11.28;100.00;100575.16;5060466;56;1145109;-74
2024/03/14 20:23:13;;;;;;;35.33;18.33;;;;;;;11.32;100.00;100565.61;5045447;56;1146946;-72
2024/03/14 20:28:16;;;;;;;54.87;42.60;;;;;;;11.33;100.00;100546.95;5051700;56;1145031;-72
2024/03/14 20:33:22;;;;;;;24.73;15.83;;;;;;;11.37;100.00;100539.62;5054429;56;1145141;-75
2024/03/14 20:38:31;;;;;;;23.30;14.83;;;;;;;11.37;100.00;100545.76;5013800;57;1145207;-81
2024/03/14 20:43:37;;;;;;;22.10;14.90;;;;;;;11.41;100.00;100537.94;4982159;56;1145287;-76
2024/03/14 20:48:42;;;;;;;27.07;16.23;;;;;;;11.39;100.00;100534.56;5033128;55;1144987;-71
2024/03/14 20:53:48;;;;;;;52.73;23.83;;;;;;;11.37;100.00;100536.48;4976178;55;1144911;-80
2024/03/14 20:58:57;;;;;;;35.13;18.10;;;;;;;11.42;100.00;100533.00;4998539;55;1144898;-78
2024/03/14 21:04:04;;;;;;;57.87;25.50;;;;;;;11.41;100.00;100535.28;4907193;57;1145208;-77
2024/03/14 21:09:09;;;;;;;22.75;16.40;;;;;;;11.42;100.00;100540.09;4970586;55;1145166;-76
2024/03/14 21:14:16;;;;;;;27.90;18.05;;;;;;;11.27;100.00;100537.72;4916341;56;1145028;-77
2024/03/14 21:19:21;;;;;;;28.90;18.80;;;;;;;11.24;100.00;100547.23;4923739;57;1145040;-80
2024/03/14 21:24:27;;;;;;;27.43;16.13;;;;;;;11.17;100.00;100543.85;4989251;57;1145209;-75
2024/03/14 21:29:33;;;;;;;42.87;21.67;;;;;;;11.10;100.00;100546.64;4962174;56;1145018;-75
2024/03/14 21:34:38;;;;;;;82.37;38.87;;;;;;;11.07;100.00;100546.88;4961438;56;1144864;-74
2024/03/14 21:39:46;;;;;;;38.80;21.70;;;;;;;11.07;100.00;100540.27;4986260;56;1145269;-75
2024/03/14 21:44:51;;;;;;;27.73;17.50;;;;;;;11.14;100.00;100535.70;4925717;57;1145403;-78
2024/03/14 21:49:58;;;;;;;36.13;19.55;;;;;;;11.26;100.00;100529.90;4918036;56;1144807;-75
2024/03/14 21:55:04;;;;;;;35.53;19.90;;;;;;;11.33;100.00;100520.96;4901840;57;1144819;-82
2024/03/14 22:00:10;;;;;;;42.03;26.40;;;;;;;11.36;100.00;100526.02;4930810;55;1145393;-79
2024/03/14 22:05:22;;;;;;;46.33;25.97;;;;;;;11.33;100.00;100521.80;4908358;57;1144935;-74
2024/03/14 22:10:28;;;;;;;34.85;21.17;;;;;;;11.28;100.00;100520.88;5014972;56;1145201;-74
2024/03/14 22:15:34;;;;;;;33.93;21.43;;;;;;;11.28;100.00;100519.55;4907144;56;1144957;-75
2024/03/14 22:20:39;;;;;;;29.67;21.13;;;;;;;11.27;100.00;100516.54;4936931;56;1145098;-77
2024/03/14 22:25:45;;;;;;;35.83;22.83;;;;;;;11.33;100.00;100514.34;4971451;58;1144896;-76
2024/03/14 22:30:51;;;;;;;38.30;23.83;;;;;;;11.28;100.00;100513.41;4938658;58;1144970;-78